sensor_id;sensor_type;location;lat;lon;timestamp;P1;durP1;ratioP1;P2;durP2;ratioP2
54271;SDS011;40184;53.362;5.216;2022-12-18T00:01:50;68.93;;;35.95;;
54271;SDS011;40184;53.362;5.216;2022-12-18T00:04:18;66.38;;;36.28;;
54271;SDS011;40184;53.362;5.216;2022-12-18T00:06:47;68.10;;;37.20;;
54271;SDS011;40184;53.362;5.216;2022-12-18T00:09:12;67.68;;;36.95;;
54271;SDS011;40184;53.362;5.216;2022-12-18T00:11:38;72.68;;;39.05;;
54271;SDS011;40184;53.362;5.216;2022-12-18T00:14:04;72.30;;;39.10;;
54271;SDS011;40184;53.362;5.216;2022-12-18T00:16:29;68.03;;;38.25;;
54271;SDS011;40184;53.362;5.216;2022-12-18T00:18:57;66.47;;;36.28;;
54271;SDS011;40184;53.362;5.216;2022-12-18T00:21:24;75.90;;;38.05;;
54271;SDS011;40184;53.362;5.216;2022-12-18T00:23:51;68.55;;;36.28;;
54271;SDS011;40184;53.362;5.216;2022-12-18T00:26:18;66.32;;;36.70;;
54271;SDS011;40184;53.362;5.216;2022-12-18T00:28:47;66.30;;;36.20;;
54271;SDS011;40184;53.362;5.216;2022-12-18T00:31:14;65.30;;;35.17;;
54271;SDS011;40184;53.362;5.216;2022-12-18T00:33:42;62.28;;;33.80;;
54271;SDS011;40184;53.362;5.216;2022-12-18T00:36:12;66.15;;;34.75;;
54271;SDS011;40184;53.362;5.216;2022-12-18T00:38:42;61.38;;;35.05;;
54271;SDS011;40184;53.362;5.216;2022-12-18T00:41:09;61.95;;;35.45;;
54271;SDS011;40184;53.362;5.216;2022-12-18T00:43:36;66.47;;;35.97;;
54271;SDS011;40184;53.362;5.216;2022-12-18T00:46:02;63.08;;;34.05;;
54271;SDS011;40184;53.362;5.216;2022-12-18T00:48:28;61.90;;;34.55;;
54271;SDS011;40184;53.362;5.216;2022-12-18T00:50:54;69.72;;;37.70;;
54271;SDS011;40184;53.362;5.216;2022-12-18T00:53:20;77.28;;;38.33;;
54271;SDS011;40184;53.362;5.216;2022-12-18T00:55:46;73.85;;;40.03;;
54271;SDS011;40184;53.362;5.216;2022-12-18T00:58:12;74.93;;;40.08;;
54271;SDS011;40184;53.362;5.216;2022-12-18T01:00:39;75.28;;;39.10;;
54271;SDS011;40184;53.362;5.216;2022-12-18T01:03:05;67.85;;;36.10;;
54271;SDS011;40184;53.362;5.216;2022-12-18T01:05:31;76.50;;;38.38;;
54271;SDS011;40184;53.362;5.216;2022-12-18T01:07:57;79.82;;;41.40;;
54271;SDS011;40184;53.362;5.216;2022-12-18T01:10:23;69.70;;;38.65;;
54271;SDS011;40184;53.362;5.216;2022-12-18T01:12:50;65.38;;;37.65;;
54271;SDS011;40184;53.362;5.216;2022-12-18T01:15:16;70.38;;;37.15;;
54271;SDS011;40184;53.362;5.216;2022-12-18T01:17:43;79.95;;;38.95;;
54271;SDS011;40184;53.362;5.216;2022-12-18T01:20:10;67.15;;;35.25;;
54271;SDS011;40184;53.362;5.216;2022-12-18T01:22:37;66.85;;;37.83;;
54271;SDS011;40184;53.362;5.216;2022-12-18T01:25:03;77.35;;;39.10;;
54271;SDS011;40184;53.362;5.216;2022-12-18T01:27:30;72.82;;;36.88;;
54271;SDS011;40184;53.362;5.216;2022-12-18T01:29:57;77.93;;;38.42;;
54271;SDS011;40184;53.362;5.216;2022-12-18T01:32:23;68.32;;;37.83;;
54271;SDS011;40184;53.362;5.216;2022-12-18T01:34:48;76.53;;;38.08;;
54271;SDS011;40184;53.362;5.216;2022-12-18T01:37:14;70.73;;;37.07;;
54271;SDS011;40184;53.362;5.216;2022-12-18T01:39:40;77.15;;;37.58;;
54271;SDS011;40184;53.362;5.216;2022-12-18T01:42:10;73.07;;;38.15;;
54271;SDS011;40184;53.362;5.216;2022-12-18T01:47:43;70.07;;;38.33;;
54271;SDS011;40184;53.362;5.216;2022-12-18T01:50:15;72.88;;;38.08;;
54271;SDS011;40184;53.362;5.216;2022-12-18T01:52:42;76.35;;;38.17;;
54271;SDS011;40184;53.362;5.216;2022-12-18T01:55:12;67.40;;;36.05;;
54271;SDS011;40184;53.362;5.216;2022-12-18T01:57:40;69.40;;;36.35;;
54271;SDS011;40184;53.362;5.216;2022-12-18T02:00:08;75.57;;;39.38;;
54271;SDS011;40184;53.362;5.216;2022-12-18T02:02:36;81.10;;;38.63;;
54271;SDS011;40184;53.362;5.216;2022-12-18T02:05:03;78.43;;;38.67;;
54271;SDS011;40184;53.362;5.216;2022-12-18T02:10:28;82.20;;;39.45;;
54271;SDS011;40184;53.362;5.216;2022-12-18T02:13:02;68.70;;;36.55;;
54271;SDS011;40184;53.362;5.216;2022-12-18T02:18:39;82.20;;;41.20;;
54271;SDS011;40184;53.362;5.216;2022-12-18T02:26:46;81.95;;;40.03;;
54271;SDS011;40184;53.362;5.216;2022-12-18T02:29:31;81.03;;;37.78;;
54271;SDS011;40184;53.362;5.216;2022-12-18T02:32:02;78.65;;;39.58;;
54271;SDS011;40184;53.362;5.216;2022-12-18T02:34:32;78.28;;;39.55;;
54271;SDS011;40184;53.362;5.216;2022-12-18T02:37:05;81.20;;;40.00;;
54271;SDS011;40184;53.362;5.216;2022-12-18T02:39:36;72.45;;;38.25;;
54271;SDS011;40184;53.362;5.216;2022-12-18T02:42:04;83.25;;;39.42;;
54271;SDS011;40184;53.362;5.216;2022-12-18T02:44:34;75.00;;;38.25;;
54271;SDS011;40184;53.362;5.216;2022-12-18T02:49:36;81.30;;;37.67;;
54271;SDS011;40184;53.362;5.216;2022-12-18T03:04:21;69.72;;;35.67;;
54271;SDS011;40184;53.362;5.216;2022-12-18T03:07:07;63.17;;;33.47;;
54271;SDS011;40184;53.362;5.216;2022-12-18T03:09:37;70.28;;;36.28;;
54271;SDS011;40184;53.362;5.216;2022-12-18T03:12:14;63.13;;;33.92;;
54271;SDS011;40184;53.362;5.216;2022-12-18T03:14:50;66.75;;;33.58;;
54271;SDS011;40184;53.362;5.216;2022-12-18T03:17:20;64.10;;;34.25;;
54271;SDS011;40184;53.362;5.216;2022-12-18T03:19:50;59.17;;;33.35;;
54271;SDS011;40184;53.362;5.216;2022-12-18T03:22:18;63.03;;;34.88;;
54271;SDS011;40184;53.362;5.216;2022-12-18T03:24:45;66.85;;;35.03;;
54271;SDS011;40184;53.362;5.216;2022-12-18T03:27:14;66.38;;;36.88;;
54271;SDS011;40184;53.362;5.216;2022-12-18T03:29:54;68.57;;;35.22;;
54271;SDS011;40184;53.362;5.216;2022-12-18T03:32:33;65.85;;;33.28;;
54271;SDS011;40184;53.362;5.216;2022-12-18T03:35:30;64.40;;;33.85;;
54271;SDS011;40184;53.362;5.216;2022-12-18T03:37:58;62.50;;;33.55;;
54271;SDS011;40184;53.362;5.216;2022-12-18T03:40:26;63.97;;;34.95;;
54271;SDS011;40184;53.362;5.216;2022-12-18T03:43:03;67.93;;;33.92;;
54271;SDS011;40184;53.362;5.216;2022-12-18T03:45:43;63.47;;;35.60;;
54271;SDS011;40184;53.362;5.216;2022-12-18T03:51:11;63.40;;;34.42;;
54271;SDS011;40184;53.362;5.216;2022-12-18T03:53:55;64.60;;;34.03;;
54271;SDS011;40184;53.362;5.216;2022-12-18T03:56:32;64.30;;;34.03;;
54271;SDS011;40184;53.362;5.216;2022-12-18T03:59:02;59.92;;;31.85;;
54271;SDS011;40184;53.362;5.216;2022-12-18T04:01:33;63.67;;;32.63;;
54271;SDS011;40184;53.362;5.216;2022-12-18T04:06:28;58.42;;;31.60;;
54271;SDS011;40184;53.362;5.216;2022-12-18T04:08:55;60.63;;;32.95;;
54271;SDS011;40184;53.362;5.216;2022-12-18T04:11:22;58.65;;;31.63;;
54271;SDS011;40184;53.362;5.216;2022-12-18T04:13:48;56.80;;;30.67;;
54271;SDS011;40184;53.362;5.216;2022-12-18T04:16:14;51.88;;;28.42;;
54271;SDS011;40184;53.362;5.216;2022-12-18T04:18:39;49.75;;;28.13;;
54271;SDS011;40184;53.362;5.216;2022-12-18T04:21:05;53.67;;;29.70;;
54271;SDS011;40184;53.362;5.216;2022-12-18T04:23:30;54.47;;;30.33;;
54271;SDS011;40184;53.362;5.216;2022-12-18T04:25:56;48.15;;;27.27;;
54271;SDS011;40184;53.362;5.216;2022-12-18T04:28:22;53.53;;;29.35;;
54271;SDS011;40184;53.362;5.216;2022-12-18T04:30:47;51.38;;;29.90;;
54271;SDS011;40184;53.362;5.216;2022-12-18T04:33:13;59.25;;;30.10;;
54271;SDS011;40184;53.362;5.216;2022-12-18T04:35:42;49.72;;;29.55;;
54271;SDS011;40184;53.362;5.216;2022-12-18T04:38:08;52.13;;;30.80;;
54271;SDS011;40184;53.362;5.216;2022-12-18T04:40:35;50.13;;;29.25;;
54271;SDS011;40184;53.362;5.216;2022-12-18T04:43:01;49.45;;;28.73;;
54271;SDS011;40184;53.362;5.216;2022-12-18T04:45:28;47.60;;;27.38;;
54271;SDS011;40184;53.362;5.216;2022-12-18T04:47:56;50.33;;;26.35;;
54271;SDS011;40184;53.362;5.216;2022-12-18T04:50:25;54.72;;;29.30;;
54271;SDS011;40184;53.362;5.216;2022-12-18T04:52:51;48.40;;;25.92;;
54271;SDS011;40184;53.362;5.216;2022-12-18T04:55:17;47.75;;;27.65;;
54271;SDS011;40184;53.362;5.216;2022-12-18T04:57:42;50.53;;;29.50;;
54271;SDS011;40184;53.362;5.216;2022-12-18T05:00:08;49.35;;;29.05;;
54271;SDS011;40184;53.362;5.216;2022-12-18T05:02:34;51.13;;;27.95;;
54271;SDS011;40184;53.362;5.216;2022-12-18T05:05:00;45.67;;;27.67;;
54271;SDS011;40184;53.362;5.216;2022-12-18T05:07:26;48.10;;;28.58;;
54271;SDS011;40184;53.362;5.216;2022-12-18T05:09:51;47.65;;;29.02;;
54271;SDS011;40184;53.362;5.216;2022-12-18T05:12:17;51.60;;;30.73;;
54271;SDS011;40184;53.362;5.216;2022-12-18T05:14:42;50.90;;;28.27;;
54271;SDS011;40184;53.362;5.216;2022-12-18T05:17:08;52.58;;;29.67;;
54271;SDS011;40184;53.362;5.216;2022-12-18T05:19:34;50.00;;;29.40;;
54271;SDS011;40184;53.362;5.216;2022-12-18T05:21:59;52.92;;;31.85;;
54271;SDS011;40184;53.362;5.216;2022-12-18T05:24:26;48.70;;;30.33;;
54271;SDS011;40184;53.362;5.216;2022-12-18T05:26:52;51.90;;;30.98;;
54271;SDS011;40184;53.362;5.216;2022-12-18T05:29:17;52.25;;;30.63;;
54271;SDS011;40184;53.362;5.216;2022-12-18T05:31:43;52.40;;;32.03;;
54271;SDS011;40184;53.362;5.216;2022-12-18T05:34:09;52.92;;;31.85;;
54271;SDS011;40184;53.362;5.216;2022-12-18T05:36:35;48.75;;;28.88;;
54271;SDS011;40184;53.362;5.216;2022-12-18T05:39:01;52.65;;;29.88;;
54271;SDS011;40184;53.362;5.216;2022-12-18T05:41:27;58.30;;;29.25;;
54271;SDS011;40184;53.362;5.216;2022-12-18T05:43:53;46.97;;;28.73;;
54271;SDS011;40184;53.362;5.216;2022-12-18T05:46:19;52.58;;;29.48;;
54271;SDS011;40184;53.362;5.216;2022-12-18T05:48:45;48.95;;;30.00;;
54271;SDS011;40184;53.362;5.216;2022-12-18T05:51:13;50.53;;;30.55;;
54271;SDS011;40184;53.362;5.216;2022-12-18T05:53:40;47.78;;;29.38;;
54271;SDS011;40184;53.362;5.216;2022-12-18T05:56:07;45.20;;;27.45;;
54271;SDS011;40184;53.362;5.216;2022-12-18T05:58:34;43.30;;;26.67;;
54271;SDS011;40184;53.362;5.216;2022-12-18T06:03:34;41.92;;;26.25;;
54271;SDS011;40184;53.362;5.216;2022-12-18T06:06:00;39.17;;;25.42;;
54271;SDS011;40184;53.362;5.216;2022-12-18T06:08:26;41.10;;;25.02;;
54271;SDS011;40184;53.362;5.216;2022-12-18T06:10:52;49.92;;;28.95;;
54271;SDS011;40184;53.362;5.216;2022-12-18T06:13:18;47.65;;;28.48;;
54271;SDS011;40184;53.362;5.216;2022-12-18T06:15:45;48.40;;;28.33;;
54271;SDS011;40184;53.362;5.216;2022-12-18T06:18:11;50.22;;;28.52;;
54271;SDS011;40184;53.362;5.216;2022-12-18T06:20:36;51.65;;;30.98;;
54271;SDS011;40184;53.362;5.216;2022-12-18T06:23:04;49.83;;;29.73;;
54271;SDS011;40184;53.362;5.216;2022-12-18T06:25:31;49.92;;;29.38;;
54271;SDS011;40184;53.362;5.216;2022-12-18T06:27:57;55.08;;;32.15;;
54271;SDS011;40184;53.362;5.216;2022-12-18T06:30:23;49.25;;;30.00;;
54271;SDS011;40184;53.362;5.216;2022-12-18T06:32:49;51.00;;;29.08;;
54271;SDS011;40184;53.362;5.216;2022-12-18T06:35:14;44.22;;;27.60;;
54271;SDS011;40184;53.362;5.216;2022-12-18T06:37:40;45.75;;;27.98;;
54271;SDS011;40184;53.362;5.216;2022-12-18T06:40:06;50.60;;;29.58;;
54271;SDS011;40184;53.362;5.216;2022-12-18T06:42:32;56.47;;;32.15;;
54271;SDS011;40184;53.362;5.216;2022-12-18T06:44:58;53.05;;;30.00;;
54271;SDS011;40184;53.362;5.216;2022-12-18T06:47:24;53.55;;;29.52;;
54271;SDS011;40184;53.362;5.216;2022-12-18T06:49:49;71.82;;;39.15;;
54271;SDS011;40184;53.362;5.216;2022-12-18T06:52:15;83.53;;;42.90;;
54271;SDS011;40184;53.362;5.216;2022-12-18T06:54:40;77.40;;;41.88;;
54271;SDS011;40184;53.362;5.216;2022-12-18T06:57:06;75.55;;;40.97;;
54271;SDS011;40184;53.362;5.216;2022-12-18T06:59:32;81.25;;;44.05;;
54271;SDS011;40184;53.362;5.216;2022-12-18T07:01:57;83.38;;;41.95;;
54271;SDS011;40184;53.362;5.216;2022-12-18T07:04:27;76.25;;;39.53;;
54271;SDS011;40184;53.362;5.216;2022-12-18T07:06:54;75.70;;;40.17;;
54271;SDS011;40184;53.362;5.216;2022-12-18T07:09:20;71.45;;;39.75;;
54271;SDS011;40184;53.362;5.216;2022-12-18T07:11:45;75.00;;;40.10;;
54271;SDS011;40184;53.362;5.216;2022-12-18T07:14:11;69.75;;;38.30;;
54271;SDS011;40184;53.362;5.216;2022-12-18T07:16:36;75.07;;;40.55;;
54271;SDS011;40184;53.362;5.216;2022-12-18T07:19:02;78.28;;;41.40;;
54271;SDS011;40184;53.362;5.216;2022-12-18T07:21:28;71.22;;;40.28;;
54271;SDS011;40184;53.362;5.216;2022-12-18T07:23:53;70.45;;;38.22;;
54271;SDS011;40184;53.362;5.216;2022-12-18T07:26:19;73.38;;;37.95;;
54271;SDS011;40184;53.362;5.216;2022-12-18T07:28:46;73.63;;;37.80;;
54271;SDS011;40184;53.362;5.216;2022-12-18T07:31:13;76.30;;;40.45;;
54271;SDS011;40184;53.362;5.216;2022-12-18T07:33:41;64.95;;;37.67;;
54271;SDS011;40184;53.362;5.216;2022-12-18T07:36:07;69.78;;;37.55;;
54271;SDS011;40184;53.362;5.216;2022-12-18T07:38:34;68.03;;;37.25;;
54271;SDS011;40184;53.362;5.216;2022-12-18T07:41:04;65.97;;;35.83;;
54271;SDS011;40184;53.362;5.216;2022-12-18T07:43:32;67.13;;;37.72;;
54271;SDS011;40184;53.362;5.216;2022-12-18T07:45:58;64.47;;;35.50;;
54271;SDS011;40184;53.362;5.216;2022-12-18T07:48:24;61.15;;;35.22;;
54271;SDS011;40184;53.362;5.216;2022-12-18T07:50:50;58.58;;;34.28;;
54271;SDS011;40184;53.362;5.216;2022-12-18T07:53:16;63.47;;;34.53;;
54271;SDS011;40184;53.362;5.216;2022-12-18T07:55:42;60.78;;;33.10;;
54271;SDS011;40184;53.362;5.216;2022-12-18T07:58:07;60.17;;;31.30;;
54271;SDS011;40184;53.362;5.216;2022-12-18T08:00:34;60.03;;;32.67;;
54271;SDS011;40184;53.362;5.216;2022-12-18T08:02:59;52.63;;;30.88;;
54271;SDS011;40184;53.362;5.216;2022-12-18T08:05:26;56.95;;;31.65;;
54271;SDS011;40184;53.362;5.216;2022-12-18T08:07:52;48.05;;;30.20;;
54271;SDS011;40184;53.362;5.216;2022-12-18T08:10:18;49.28;;;29.60;;
54271;SDS011;40184;53.362;5.216;2022-12-18T08:12:44;51.00;;;28.77;;
54271;SDS011;40184;53.362;5.216;2022-12-18T08:15:10;49.90;;;27.27;;
54271;SDS011;40184;53.362;5.216;2022-12-18T08:17:36;44.35;;;26.42;;
54271;SDS011;40184;53.362;5.216;2022-12-18T08:20:02;43.70;;;27.92;;
54271;SDS011;40184;53.362;5.216;2022-12-18T08:22:27;48.38;;;27.27;;
54271;SDS011;40184;53.362;5.216;2022-12-18T08:24:53;48.30;;;28.52;;
54271;SDS011;40184;53.362;5.216;2022-12-18T08:27:19;58.03;;;29.02;;
54271;SDS011;40184;53.362;5.216;2022-12-18T08:29:44;46.70;;;26.85;;
54271;SDS011;40184;53.362;5.216;2022-12-18T08:32:10;49.13;;;27.58;;
54271;SDS011;40184;53.362;5.216;2022-12-18T08:34:35;42.70;;;26.23;;
54271;SDS011;40184;53.362;5.216;2022-12-18T08:37:03;47.22;;;24.58;;
54271;SDS011;40184;53.362;5.216;2022-12-18T08:39:28;48.22;;;26.27;;
54271;SDS011;40184;53.362;5.216;2022-12-18T08:41:54;42.75;;;25.05;;
54271;SDS011;40184;53.362;5.216;2022-12-18T08:44:38;39.38;;;22.67;;
54271;SDS011;40184;53.362;5.216;2022-12-18T08:47:04;39.17;;;23.30;;
54271;SDS011;40184;53.362;5.216;2022-12-18T08:49:30;39.53;;;21.95;;
54271;SDS011;40184;53.362;5.216;2022-12-18T08:51:56;37.55;;;21.30;;
54271;SDS011;40184;53.362;5.216;2022-12-18T08:54:22;39.25;;;20.35;;
54271;SDS011;40184;53.362;5.216;2022-12-18T08:56:48;36.80;;;21.05;;
54271;SDS011;40184;53.362;5.216;2022-12-18T08:59:17;34.08;;;21.25;;
54271;SDS011;40184;53.362;5.216;2022-12-18T09:01:43;37.25;;;21.10;;
54271;SDS011;40184;53.362;5.216;2022-12-18T09:04:09;37.63;;;22.45;;
54271;SDS011;40184;53.362;5.216;2022-12-18T09:06:35;34.92;;;21.25;;
54271;SDS011;40184;53.362;5.216;2022-12-18T09:09:02;35.67;;;21.45;;
54271;SDS011;40184;53.362;5.216;2022-12-18T09:11:29;31.85;;;20.63;;
54271;SDS011;40184;53.362;5.216;2022-12-18T09:13:56;37.13;;;20.75;;
54271;SDS011;40184;53.362;5.216;2022-12-18T09:16:23;39.08;;;20.38;;
54271;SDS011;40184;53.362;5.216;2022-12-18T09:18:50;31.48;;;19.77;;
54271;SDS011;40184;53.362;5.216;2022-12-18T09:21:17;29.60;;;18.25;;
54271;SDS011;40184;53.362;5.216;2022-12-18T09:23:48;30.00;;;18.92;;
54271;SDS011;40184;53.362;5.216;2022-12-18T09:26:14;29.25;;;18.63;;
54271;SDS011;40184;53.362;5.216;2022-12-18T09:28:40;33.83;;;19.58;;
54271;SDS011;40184;53.362;5.216;2022-12-18T09:31:06;33.70;;;19.73;;
54271;SDS011;40184;53.362;5.216;2022-12-18T09:33:34;30.13;;;18.33;;
54271;SDS011;40184;53.362;5.216;2022-12-18T09:36:01;31.90;;;19.30;;
54271;SDS011;40184;53.362;5.216;2022-12-18T09:38:28;32.00;;;19.30;;
54271;SDS011;40184;53.362;5.216;2022-12-18T09:40:55;28.05;;;17.92;;
54271;SDS011;40184;53.362;5.216;2022-12-18T09:43:35;33.47;;;17.98;;
54271;SDS011;40184;53.362;5.216;2022-12-18T09:46:07;32.80;;;19.13;;
54271;SDS011;40184;53.362;5.216;2022-12-18T09:48:41;31.42;;;18.00;;
54271;SDS011;40184;53.362;5.216;2022-12-18T09:51:18;37.95;;;18.52;;
54271;SDS011;40184;53.362;5.216;2022-12-18T09:53:50;27.13;;;17.77;;
54271;SDS011;40184;53.362;5.216;2022-12-18T09:56:23;25.98;;;16.77;;
54271;SDS011;40184;53.362;5.216;2022-12-18T09:58:55;28.75;;;18.48;;
54271;SDS011;40184;53.362;5.216;2022-12-18T10:01:24;26.80;;;17.63;;
54271;SDS011;40184;53.362;5.216;2022-12-18T10:03:51;27.85;;;17.75;;
54271;SDS011;40184;53.362;5.216;2022-12-18T10:06:21;28.75;;;17.88;;
54271;SDS011;40184;53.362;5.216;2022-12-18T10:19:21;25.50;;;15.77;;
54271;SDS011;40184;53.362;5.216;2022-12-18T10:27:10;25.95;;;15.98;;
54271;SDS011;40184;53.362;5.216;2022-12-18T10:29:40;26.35;;;16.10;;
54271;SDS011;40184;53.362;5.216;2022-12-18T10:32:09;27.25;;;16.50;;
54271;SDS011;40184;53.362;5.216;2022-12-18T10:34:40;24.05;;;15.20;;
54271;SDS011;40184;53.362;5.216;2022-12-18T10:37:06;27.30;;;15.43;;
54271;SDS011;40184;53.362;5.216;2022-12-18T10:39:40;24.90;;;14.40;;
54271;SDS011;40184;53.362;5.216;2022-12-18T10:42:10;26.50;;;15.23;;
54271;SDS011;40184;53.362;5.216;2022-12-18T10:44:41;26.02;;;15.00;;
54271;SDS011;40184;53.362;5.216;2022-12-18T10:47:10;20.40;;;13.98;;
54271;SDS011;40184;53.362;5.216;2022-12-18T10:49:40;20.15;;;12.90;;
54271;SDS011;40184;53.362;5.216;2022-12-18T10:54:49;19.45;;;12.55;;
54271;SDS011;40184;53.362;5.216;2022-12-18T10:57:36;19.73;;;12.10;;
54271;SDS011;40184;53.362;5.216;2022-12-18T11:02:52;22.20;;;14.65;;
54271;SDS011;40184;53.362;5.216;2022-12-18T11:05:37;22.30;;;14.35;;
54271;SDS011;40184;53.362;5.216;2022-12-18T11:08:07;19.40;;;12.60;;
54271;SDS011;40184;53.362;5.216;2022-12-18T11:10:46;26.15;;;13.63;;
54271;SDS011;40184;53.362;5.216;2022-12-18T11:13:16;22.45;;;13.75;;
54271;SDS011;40184;53.362;5.216;2022-12-18T11:15:45;22.23;;;12.88;;
54271;SDS011;40184;53.362;5.216;2022-12-18T11:18:18;24.38;;;14.23;;
54271;SDS011;40184;53.362;5.216;2022-12-18T11:20:52;18.02;;;12.63;;
54271;SDS011;40184;53.362;5.216;2022-12-18T11:23:32;23.90;;;12.65;;
54271;SDS011;40184;53.362;5.216;2022-12-18T11:25:59;21.63;;;12.90;;
54271;SDS011;40184;53.362;5.216;2022-12-18T11:31:17;19.33;;;12.95;;
54271;SDS011;40184;53.362;5.216;2022-12-18T11:33:58;24.85;;;13.95;;
54271;SDS011;40184;53.362;5.216;2022-12-18T11:36:36;21.10;;;13.98;;
54271;SDS011;40184;53.362;5.216;2022-12-18T11:39:18;20.35;;;13.30;;
54271;SDS011;40184;53.362;5.216;2022-12-18T11:50:03;22.77;;;15.45;;
54271;SDS011;40184;53.362;5.216;2022-12-18T11:52:38;19.77;;;14.13;;
54271;SDS011;40184;53.362;5.216;2022-12-18T11:55:10;18.85;;;13.10;;
54271;SDS011;40184;53.362;5.216;2022-12-18T12:00:18;17.80;;;14.50;;
54271;SDS011;40184;53.362;5.216;2022-12-18T12:08:15;19.48;;;10.82;;
54271;SDS011;40184;53.362;5.216;2022-12-18T12:22:16;15.80;;;9.98;;
54271;SDS011;40184;53.362;5.216;2022-12-18T12:33:27;13.52;;;9.85;;
54271;SDS011;40184;53.362;5.216;2022-12-18T12:38:44;14.20;;;9.63;;
54271;SDS011;40184;53.362;5.216;2022-12-18T12:41:17;15.05;;;10.15;;
54271;SDS011;40184;53.362;5.216;2022-12-18T12:44:07;17.05;;;10.20;;
54271;SDS011;40184;53.362;5.216;2022-12-18T12:49:13;15.80;;;9.50;;
54271;SDS011;40184;53.362;5.216;2022-12-18T12:51:45;13.93;;;9.98;;
54271;SDS011;40184;53.362;5.216;2022-12-18T12:54:22;11.18;;;9.30;;
54271;SDS011;40184;53.362;5.216;2022-12-18T13:02:18;19.48;;;10.68;;
54271;SDS011;40184;53.362;5.216;2022-12-18T13:07:35;14.35;;;9.75;;
54271;SDS011;40184;53.362;5.216;2022-12-18T13:16:07;14.07;;;9.95;;
54271;SDS011;40184;53.362;5.216;2022-12-18T13:20:45;13.27;;;8.90;;
54271;SDS011;40184;53.362;5.216;2022-12-18T13:25:49;28.95;;;21.08;;
54271;SDS011;40184;53.362;5.216;2022-12-18T13:36:42;15.90;;;10.75;;
54271;SDS011;40184;53.362;5.216;2022-12-18T13:41:43;14.43;;;9.38;;
54271;SDS011;40184;53.362;5.216;2022-12-18T13:46:49;18.15;;;9.93;;
54271;SDS011;40184;53.362;5.216;2022-12-18T13:52:00;15.82;;;10.75;;
54271;SDS011;40184;53.362;5.216;2022-12-18T13:54:34;14.07;;;9.82;;
54271;SDS011;40184;53.362;5.216;2022-12-18T13:57:02;13.73;;;9.18;;
54271;SDS011;40184;53.362;5.216;2022-12-18T14:02:09;12.93;;;8.95;;
54271;SDS011;40184;53.362;5.216;2022-12-18T14:04:40;14.77;;;8.50;;
54271;SDS011;40184;53.362;5.216;2022-12-18T14:07:07;14.57;;;8.95;;
54271;SDS011;40184;53.362;5.216;2022-12-18T14:09:42;12.35;;;8.73;;
54271;SDS011;40184;53.362;5.216;2022-12-18T14:12:18;12.88;;;8.65;;
54271;SDS011;40184;53.362;5.216;2022-12-18T14:15:50;13.93;;;9.18;;
54271;SDS011;40184;53.362;5.216;2022-12-18T14:20:39;14.15;;;9.13;;
54271;SDS011;40184;53.362;5.216;2022-12-18T14:23:24;13.35;;;8.35;;
54271;SDS011;40184;53.362;5.216;2022-12-18T14:25:59;13.52;;;9.10;;
54271;SDS011;40184;53.362;5.216;2022-12-18T14:28:25;13.90;;;9.48;;
54271;SDS011;40184;53.362;5.216;2022-12-18T14:30:52;38.75;;;20.25;;
54271;SDS011;40184;53.362;5.216;2022-12-18T14:33:20;20.52;;;10.70;;
54271;SDS011;40184;53.362;5.216;2022-12-18T14:38:27;31.55;;;14.93;;
54271;SDS011;40184;53.362;5.216;2022-12-18T14:43:33;22.33;;;11.85;;
54271;SDS011;40184;53.362;5.216;2022-12-18T14:46:01;17.35;;;9.98;;
54271;SDS011;40184;53.362;5.216;2022-12-18T14:48:47;38.60;;;17.77;;
54271;SDS011;40184;53.362;5.216;2022-12-18T14:51:20;18.02;;;9.98;;
54271;SDS011;40184;53.362;5.216;2022-12-18T14:53:48;33.05;;;15.23;;
54271;SDS011;40184;53.362;5.216;2022-12-18T14:59:02;29.15;;;13.82;;
54271;SDS011;40184;53.362;5.216;2022-12-18T15:01:56;51.65;;;21.50;;
54271;SDS011;40184;53.362;5.216;2022-12-18T15:07:04;36.67;;;16.30;;
54271;SDS011;40184;53.362;5.216;2022-12-18T15:09:41;46.38;;;18.95;;
54271;SDS011;40184;53.362;5.216;2022-12-18T15:12:29;47.67;;;22.13;;
54271;SDS011;40184;53.362;5.216;2022-12-18T15:14:59;33.22;;;16.90;;
54271;SDS011;40184;53.362;5.216;2022-12-18T15:17:25;27.48;;;13.23;;
54271;SDS011;40184;53.362;5.216;2022-12-18T15:19:53;24.45;;;13.23;;
54271;SDS011;40184;53.362;5.216;2022-12-18T15:22:33;23.33;;;13.32;;
54271;SDS011;40184;53.362;5.216;2022-12-18T15:25:00;16.95;;;9.55;;
54271;SDS011;40184;53.362;5.216;2022-12-18T15:32:35;13.13;;;9.35;;
54271;SDS011;40184;53.362;5.216;2022-12-18T15:35:24;40.53;;;19.42;;
54271;SDS011;40184;53.362;5.216;2022-12-18T15:37:50;17.00;;;10.80;;
54271;SDS011;40184;53.362;5.216;2022-12-18T15:40:20;16.40;;;9.90;;
54271;SDS011;40184;53.362;5.216;2022-12-18T15:42:50;17.08;;;10.05;;
54271;SDS011;40184;53.362;5.216;2022-12-18T15:45:37;25.15;;;13.80;;
54271;SDS011;40184;53.362;5.216;2022-12-18T15:48:07;32.03;;;15.27;;
54271;SDS011;40184;53.362;5.216;2022-12-18T15:50:44;62.92;;;26.48;;
54271;SDS011;40184;53.362;5.216;2022-12-18T15:53:10;28.73;;;14.75;;
54271;SDS011;40184;53.362;5.216;2022-12-18T15:55:35;32.13;;;15.13;;
54271;SDS011;40184;53.362;5.216;2022-12-18T15:58:21;58.40;;;20.70;;
54271;SDS011;40184;53.362;5.216;2022-12-18T16:00:46;57.17;;;22.92;;
54271;SDS011;40184;53.362;5.216;2022-12-18T16:03:12;34.25;;;14.60;;
54271;SDS011;40184;53.362;5.216;2022-12-18T16:05:38;85.05;;;34.17;;
54271;SDS011;40184;53.362;5.216;2022-12-18T16:08:03;54.47;;;21.33;;
54271;SDS011;40184;53.362;5.216;2022-12-18T16:10:29;39.88;;;18.63;;
54271;SDS011;40184;53.362;5.216;2022-12-18T16:12:55;32.10;;;15.30;;
54271;SDS011;40184;53.362;5.216;2022-12-18T16:15:20;41.10;;;21.65;;
54271;SDS011;40184;53.362;5.216;2022-12-18T16:17:46;63.10;;;28.02;;
54271;SDS011;40184;53.362;5.216;2022-12-18T16:20:14;29.35;;;15.45;;
54271;SDS011;40184;53.362;5.216;2022-12-18T16:22:42;61.28;;;24.80;;
54271;SDS011;40184;53.362;5.216;2022-12-18T16:25:22;47.25;;;21.92;;
54271;SDS011;40184;53.362;5.216;2022-12-18T16:27:49;36.83;;;17.60;;
54271;SDS011;40184;53.362;5.216;2022-12-18T16:30:16;32.88;;;16.15;;
54271;SDS011;40184;53.362;5.216;2022-12-18T16:32:46;25.98;;;13.80;;
54271;SDS011;40184;53.362;5.216;2022-12-18T16:35:13;46.17;;;21.35;;
54271;SDS011;40184;53.362;5.216;2022-12-18T16:37:40;29.83;;;16.02;;
54271;SDS011;40184;53.362;5.216;2022-12-18T16:40:07;27.27;;;14.73;;
54271;SDS011;40184;53.362;5.216;2022-12-18T16:42:34;40.78;;;20.08;;
54271;SDS011;40184;53.362;5.216;2022-12-18T16:45:01;34.92;;;17.55;;
54271;SDS011;40184;53.362;5.216;2022-12-18T16:47:28;38.90;;;20.13;;
54271;SDS011;40184;53.362;5.216;2022-12-18T16:49:53;35.00;;;18.73;;
54271;SDS011;40184;53.362;5.216;2022-12-18T16:52:19;37.78;;;17.92;;
54271;SDS011;40184;53.362;5.216;2022-12-18T16:54:46;29.85;;;15.43;;
54271;SDS011;40184;53.362;5.216;2022-12-18T16:57:12;54.90;;;25.65;;
54271;SDS011;40184;53.362;5.216;2022-12-18T16:59:40;59.13;;;26.75;;
54271;SDS011;40184;53.362;5.216;2022-12-18T17:02:10;47.83;;;22.38;;
54271;SDS011;40184;53.362;5.216;2022-12-18T17:04:39;35.22;;;18.00;;
54271;SDS011;40184;53.362;5.216;2022-12-18T17:07:06;38.38;;;17.85;;
54271;SDS011;40184;53.362;5.216;2022-12-18T17:09:32;28.55;;;12.52;;
54271;SDS011;40184;53.362;5.216;2022-12-18T17:11:58;41.47;;;17.25;;
54271;SDS011;40184;53.362;5.216;2022-12-18T17:14:24;36.25;;;16.60;;